BAW3586 VHHH-VGHS
Flight info
| Callsign | BAW3586 |
|---|---|
| Flight time | 3h 35m |
| Altitude | 34000 |
| Route | PECAN V10 SIKOU/K0926S1040 A202 ASSAD/K0924F340 A206 BUVAN/K0922F360 A206 NALAO/N0497F360 A206 LPB B465 CTG G463 ADMIL |
| Aircraft | B744/H-SDE3FGHIM1M2RWXY/LB1 |
Departure
| Time | 2026-05-07 18:41 |
|---|---|
| Airport | Hong Kong International Airport (VHHH) |
Arrival
| Time | 2026-05-07 22:16 |
|---|---|
| Airport | Hazrat Shahjalal International Airport (VGHS) |
| Time | Latitude | Longitude | Altitude | Speed | Heading |
|---|---|---|---|---|---|
| 2026-05-07 18:12 | 22.30011 | 113.92559 | 43 ft | 0 kts | 161° |
| 2026-05-07 18:29 | 22.30012 | 113.92559 | 43 ft | 1 kts | 161° |
| 2026-05-07 18:30 | 22.30037 | 113.92550 | 39 ft | 4 kts | 165° |
| 2026-05-07 18:30 | 22.30068 | 113.92548 | 40 ft | 4 kts | 195° |
| 2026-05-07 18:30 | 22.30095 | 113.92564 | 38 ft | 4 kts | 225° |
| 2026-05-07 18:30 | 22.30112 | 113.92591 | 39 ft | 3 kts | 251° |
| 2026-05-07 18:31 | 22.30114 | 113.92598 | 38 ft | 0 kts | 251° |
| 2026-05-07 18:32 | 22.30114 | 113.92597 | 38 ft | 0 kts | 251° |
| 2026-05-07 18:32 | 22.30108 | 113.92570 | 40 ft | 7 kts | 255° |
| 2026-05-07 18:33 | 22.30086 | 113.92504 | 37 ft | 12 kts | 249° |
| 2026-05-07 18:33 | 22.30054 | 113.92412 | 37 ft | 15 kts | 250° |
| 2026-05-07 18:33 | 22.30023 | 113.92292 | 42 ft | 18 kts | 250° |
| 2026-05-07 18:33 | 22.29983 | 113.92173 | 37 ft | 17 kts | 260° |
| 2026-05-07 18:34 | 22.29975 | 113.92117 | 38 ft | 8 kts | 259° |
| 2026-05-07 18:34 | 22.29951 | 113.92041 | 40 ft | 13 kts | 250° |
| 2026-05-07 18:34 | 22.29915 | 113.91936 | 39 ft | 16 kts | 249° |
| 2026-05-07 18:34 | 22.29875 | 113.91821 | 37 ft | 12 kts | 249° |
| 2026-05-07 18:35 | 22.29901 | 113.91751 | 38 ft | 12 kts | 326° |
| 2026-05-07 18:35 | 22.29985 | 113.91716 | 37 ft | 13 kts | 345° |
| 2026-05-07 18:35 | 22.30038 | 113.91684 | 37 ft | 9 kts | 279° |
| 2026-05-07 18:35 | 22.30021 | 113.91599 | 40 ft | 14 kts | 249° |
| 2026-05-07 18:36 | 22.29982 | 113.91485 | 38 ft | 18 kts | 250° |
| 2026-05-07 18:36 | 22.29939 | 113.91351 | 37 ft | 19 kts | 251° |
| 2026-05-07 18:36 | 22.29888 | 113.91193 | 38 ft | 23 kts | 251° |
| 2026-05-07 18:36 | 22.29833 | 113.91021 | 39 ft | 26 kts | 251° |
| 2026-05-07 18:37 | 22.29780 | 113.90856 | 39 ft | 24 kts | 250° |
| 2026-05-07 18:37 | 22.29722 | 113.90677 | 40 ft | 26 kts | 251° |
| 2026-05-07 18:37 | 22.29658 | 113.90478 | 37 ft | 30 kts | 250° |
| 2026-05-07 18:37 | 22.29587 | 113.90258 | 37 ft | 27 kts | 250° |
| 2026-05-07 18:38 | 22.29532 | 113.90091 | 39 ft | 24 kts | 251° |
| 2026-05-07 18:38 | 22.29494 | 113.89971 | 38 ft | 10 kts | 251° |
| 2026-05-07 18:38 | 22.29499 | 113.89883 | 37 ft | 14 kts | 307° |
| 2026-05-07 18:38 | 22.29535 | 113.89847 | 38 ft | 7 kts | 337° |
| 2026-05-07 18:39 | 22.29597 | 113.89820 | 38 ft | 10 kts | 340° |
| 2026-05-07 18:39 | 22.29640 | 113.89839 | 37 ft | 4 kts | 74° |
| 2026-05-07 18:39 | 22.29643 | 113.89851 | 37 ft | 0 kts | 72° |
| 2026-05-07 18:39 | 22.29646 | 113.89861 | 37 ft | 5 kts | 72° |
| 2026-05-07 18:40 | 22.29666 | 113.89925 | 40 ft | 29 kts | 71° |
| 2026-05-07 18:40 | 22.29816 | 113.90398 | 38 ft | 100 kts | 71° |
| 2026-05-07 18:40 | 22.30107 | 113.91296 | 38 ft | 145 kts | 71° |
| 2026-05-07 18:40 | 22.30508 | 113.92433 | 200 ft | 158 kts | 68° |
| 2026-05-07 18:41 | 22.30959 | 113.93725 | 825 ft | 165 kts | 72° |
| 2026-05-07 18:41 | 22.31346 | 113.94997 | 1439 ft | 168 kts | 73° |
| 2026-05-07 18:41 | 22.31716 | 113.96221 | 1507 ft | 177 kts | 73° |
| 2026-05-07 18:41 | 22.32138 | 113.97607 | 1784 ft | 198 kts | 73° |
| 2026-05-07 18:42 | 22.32596 | 113.99107 | 2294 ft | 203 kts | 73° |
| 2026-05-07 18:42 | 22.33055 | 114.00591 | 2696 ft | 202 kts | 73° |
| 2026-05-07 18:42 | 22.33525 | 114.02106 | 3030 ft | 209 kts | 73° |
| 2026-05-07 18:42 | 22.33828 | 114.03759 | 3176 ft | 226 kts | 92° |
| 2026-05-07 18:43 | 22.33477 | 114.05493 | 3556 ft | 235 kts | 114° |
| 2026-05-07 18:43 | 22.32586 | 114.07006 | 4078 ft | 227 kts | 136° |
| 2026-05-07 18:43 | 22.31223 | 114.08035 | 4682 ft | 222 kts | 158° |
| 2026-05-07 18:43 | 22.29612 | 114.08437 | 5291 ft | 223 kts | 176° |
| 2026-05-07 18:44 | 22.27980 | 114.08582 | 5926 ft | 222 kts | 179° |
| 2026-05-07 18:44 | 22.26298 | 114.08634 | 6542 ft | 231 kts | 180° |
| 2026-05-07 18:44 | 22.24624 | 114.08653 | 7004 ft | 239 kts | 180° |
| 2026-05-07 18:44 | 22.22847 | 114.08668 | 7392 ft | 257 kts | 180° |
| 2026-05-07 18:45 | 22.20950 | 114.08685 | 7773 ft | 277 kts | 180° |
| 2026-05-07 18:45 | 22.18967 | 114.08705 | 8349 ft | 280 kts | 178° |
| 2026-05-07 18:45 | 22.17015 | 114.09253 | 8921 ft | 302 kts | 154° |
| 2026-05-07 18:45 | 22.15368 | 114.10696 | 9497 ft | 309 kts | 133° |
| 2026-05-07 18:46 | 22.14120 | 114.12617 | 10212 ft | 310 kts | 121° |
| 2026-05-07 18:46 | 22.13060 | 114.14752 | 10653 ft | 334 kts | 118° |
| 2026-05-07 18:46 | 22.11963 | 114.17044 | 11039 ft | 346 kts | 118° |
| 2026-05-07 18:46 | 22.10842 | 114.19452 | 11405 ft | 356 kts | 117° |
| 2026-05-07 18:47 | 22.09666 | 114.21998 | 11725 ft | 385 kts | 117° |
| 2026-05-07 18:47 | 22.08431 | 114.24618 | 11988 ft | 408 kts | 120° |
| 2026-05-07 18:47 | 22.06694 | 114.27036 | 12416 ft | 423 kts | 136° |
| 2026-05-07 18:47 | 22.04504 | 114.29070 | 12970 ft | 426 kts | 143° |
| 2026-05-07 18:48 | 22.02177 | 114.30926 | 13559 ft | 418 kts | 147° |
| 2026-05-07 18:48 | 21.99563 | 114.32326 | 14175 ft | 424 kts | 164° |
| 2026-05-07 18:48 | 21.96687 | 114.32831 | 14683 ft | 433 kts | 181° |
| 2026-05-07 18:48 | 21.93801 | 114.32451 | 15222 ft | 424 kts | 197° |
| 2026-05-07 18:49 | 21.91109 | 114.31261 | 15867 ft | 420 kts | 211° |
| 2026-05-07 18:49 | 21.88656 | 114.29530 | 16526 ft | 428 kts | 217° |
| 2026-05-07 18:49 | 21.86299 | 114.27615 | 17154 ft | 427 kts | 220° |
| 2026-05-07 18:49 | 21.83972 | 114.25604 | 17757 ft | 431 kts | 221° |
| 2026-05-07 18:50 | 21.81639 | 114.23541 | 18348 ft | 445 kts | 221° |
| 2026-05-07 18:50 | 21.79297 | 114.21472 | 18919 ft | 445 kts | 221° |
| 2026-05-07 18:50 | 21.76911 | 114.19385 | 19467 ft | 438 kts | 221° |
| 2026-05-07 18:50 | 21.74499 | 114.17303 | 20002 ft | 438 kts | 221° |
| 2026-05-07 18:51 | 21.72053 | 114.15211 | 20496 ft | 441 kts | 221° |
| 2026-05-07 18:51 | 21.69572 | 114.13100 | 20985 ft | 456 kts | 221° |
| 2026-05-07 18:51 | 21.67072 | 114.10980 | 21449 ft | 463 kts | 220° |
| 2026-05-07 18:51 | 21.64397 | 114.09076 | 21874 ft | 463 kts | 209° |
| 2026-05-07 18:52 | 21.61364 | 114.07821 | 22329 ft | 482 kts | 199° |
| 2026-05-07 18:52 | 21.58190 | 114.06917 | 22748 ft | 475 kts | 196° |
| 2026-05-07 18:52 | 21.54926 | 114.06113 | 23176 ft | 472 kts | 194° |
| 2026-05-07 18:52 | 21.51656 | 114.05345 | 23579 ft | 480 kts | 194° |
| 2026-05-07 18:53 | 21.48344 | 114.04561 | 23966 ft | 503 kts | 194° |
| 2026-05-07 18:53 | 21.45038 | 114.03702 | 24334 ft | 559 kts | 199° |
| 2026-05-07 18:53 | 21.41919 | 114.02275 | 24698 ft | 491 kts | 211° |
| 2026-05-07 18:53 | 21.39031 | 114.00376 | 25066 ft | 541 kts | 215° |
| 2026-05-07 18:54 | 21.36180 | 113.98313 | 25433 ft | 511 kts | 216° |
| 2026-05-07 18:54 | 21.33363 | 113.96218 | 25753 ft | 498 kts | 217° |
| 2026-05-07 18:54 | 21.30532 | 113.94123 | 26093 ft | 505 kts | 216° |
| 2026-05-07 18:54 | 21.27680 | 113.92048 | 26401 ft | 501 kts | 216° |
| 2026-05-07 18:55 | 21.24755 | 113.89954 | 26727 ft | 488 kts | 216° |
| 2026-05-07 18:55 | 21.21835 | 113.87884 | 27043 ft | 537 kts | 215° |
| 2026-05-07 18:55 | 21.18915 | 113.85825 | 27339 ft | 531 kts | 215° |
| 2026-05-07 18:55 | 21.15962 | 113.83748 | 27629 ft | 503 kts | 215° |
| 2026-05-07 18:56 | 21.12993 | 113.81660 | 27916 ft | 530 kts | 216° |
| 2026-05-07 18:56 | 21.10250 | 113.79278 | 28245 ft | 501 kts | 228° |
| 2026-05-07 18:56 | 21.08154 | 113.76265 | 28612 ft | 511 kts | 243° |
| 2026-05-07 18:56 | 21.06712 | 113.72875 | 29030 ft | 513 kts | 250° |
| 2026-05-07 18:57 | 21.05509 | 113.69394 | 29434 ft | 489 kts | 252° |
| 2026-05-07 18:57 | 21.04404 | 113.65926 | 29833 ft | 496 kts | 253° |
| 2026-05-07 18:57 | 21.03303 | 113.62382 | 30270 ft | 521 kts | 253° |
| 2026-05-07 18:57 | 21.02216 | 113.58865 | 30707 ft | 500 kts | 253° |
| 2026-05-07 18:58 | 21.01111 | 113.55365 | 31123 ft | 486 kts | 253° |
| 2026-05-07 18:58 | 20.99991 | 113.51875 | 31573 ft | 499 kts | 253° |
| 2026-05-07 18:58 | 20.98859 | 113.48384 | 32019 ft | 509 kts | 253° |
| 2026-05-07 18:58 | 20.97730 | 113.44925 | 32480 ft | 490 kts | 253° |
| 2026-05-07 18:59 | 20.96596 | 113.41466 | 32810 ft | 484 kts | 253° |
| 2026-05-07 18:59 | 20.95458 | 113.37970 | 32923 ft | 501 kts | 253° |
| 2026-05-07 18:59 | 20.94318 | 113.34482 | 33028 ft | 495 kts | 253° |
| 2026-05-07 18:59 | 20.93179 | 113.30983 | 33138 ft | 507 kts | 253° |
| 2026-05-07 19:00 | 20.92051 | 113.27525 | 33228 ft | 512 kts | 253° |
| 2026-05-07 19:00 | 20.90897 | 113.23987 | 33332 ft | 499 kts | 253° |
| 2026-05-07 19:00 | 20.89748 | 113.20449 | 33432 ft | 502 kts | 253° |
| 2026-05-07 19:00 | 20.88591 | 113.16907 | 33529 ft | 533 kts | 253° |
| 2026-05-07 19:01 | 20.87429 | 113.13360 | 33629 ft | 528 kts | 253° |
| 2026-05-07 19:01 | 20.86264 | 113.09795 | 33727 ft | 509 kts | 253° |
| 2026-05-07 19:01 | 20.85101 | 113.06253 | 33827 ft | 539 kts | 253° |
| 2026-05-07 19:01 | 20.83928 | 113.02693 | 33895 ft | 499 kts | 253° |
| 2026-05-07 19:02 | 20.82747 | 112.99099 | 33910 ft | 504 kts | 253° |
| 2026-05-07 19:02 | 20.80420 | 112.91978 | 33906 ft | 498 kts | 252° |
| 2026-05-07 19:02 | 20.79233 | 112.88406 | 33924 ft | 510 kts | 252° |
| 2026-05-07 19:03 | 20.78056 | 112.84871 | 33906 ft | 509 kts | 252° |
| 2026-05-07 19:03 | 20.75724 | 112.77790 | 33921 ft | 505 kts | 252° |
| 2026-05-07 19:04 | 20.73378 | 112.70697 | 33911 ft | 506 kts | 252° |
| 2026-05-07 19:04 | 20.71051 | 112.63614 | 33923 ft | 579 kts | 252° |
| 2026-05-07 19:04 | 20.69854 | 112.60030 | 33905 ft | 520 kts | 252° |
| 2026-05-07 19:05 | 20.68680 | 112.56488 | 33915 ft | 549 kts | 252° |
| 2026-05-07 19:05 | 20.67496 | 112.52919 | 33918 ft | 497 kts | 252° |
| 2026-05-07 19:05 | 20.66316 | 112.49368 | 33899 ft | 527 kts | 252° |
| 2026-05-07 19:05 | 20.65157 | 112.45879 | 33904 ft | 512 kts | 252° |
| 2026-05-07 19:06 | 20.63951 | 112.42254 | 33918 ft | 508 kts | 252° |
| 2026-05-07 19:06 | 20.60400 | 112.31593 | 33905 ft | 508 kts | 252° |
| 2026-05-07 19:07 | 20.58036 | 112.24511 | 33918 ft | 503 kts | 252° |
| 2026-05-07 19:07 | 20.56857 | 112.20936 | 33900 ft | 539 kts | 254° |
| 2026-05-07 19:07 | 20.56186 | 112.17287 | 33900 ft | 526 kts | 268° |
| 2026-05-07 19:08 | 20.56396 | 112.13634 | 33901 ft | 540 kts | 281° |
| 2026-05-07 19:08 | 20.57389 | 112.10072 | 33919 ft | 532 kts | 292° |
| 2026-05-07 19:08 | 20.58754 | 112.06664 | 33901 ft | 508 kts | 295° |
| 2026-05-07 19:08 | 20.60229 | 112.03306 | 33899 ft | 494 kts | 297° |
| 2026-05-07 19:09 | 20.63284 | 111.96701 | 33918 ft | 508 kts | 297° |
| 2026-05-07 19:09 | 20.64800 | 111.93404 | 33921 ft | 496 kts | 297° |
| 2026-05-07 19:09 | 20.66327 | 111.90086 | 33916 ft | 516 kts | 297° |
| 2026-05-07 19:10 | 20.69305 | 111.83506 | 33902 ft | 475 kts | 296° |
| 2026-05-07 19:10 | 20.70802 | 111.80177 | 33901 ft | 495 kts | 296° |
| 2026-05-07 19:10 | 20.72292 | 111.76862 | 33918 ft | 501 kts | 296° |
| 2026-05-07 19:11 | 20.75271 | 111.70229 | 33919 ft | 533 kts | 296° |
| 2026-05-07 19:11 | 20.76752 | 111.66928 | 33902 ft | 520 kts | 296° |
| 2026-05-07 19:11 | 20.78245 | 111.63603 | 33921 ft | 491 kts | 296° |
| 2026-05-07 19:12 | 20.79733 | 111.60285 | 33915 ft | 512 kts | 296° |
| 2026-05-07 19:12 | 20.81206 | 111.56960 | 33906 ft | 527 kts | 296° |
| 2026-05-07 19:12 | 20.82548 | 111.53564 | 33905 ft | 512 kts | 288° |
| 2026-05-07 19:12 | 20.83091 | 111.49915 | 33920 ft | 495 kts | 273° |
| 2026-05-07 19:13 | 20.82813 | 111.46217 | 33923 ft | 497 kts | 261° |
| 2026-05-07 19:13 | 20.81919 | 111.42608 | 33924 ft | 505 kts | 254° |
| 2026-05-07 19:13 | 20.79611 | 111.35519 | 34013 ft | 504 kts | 251° |
| 2026-05-07 19:14 | 20.77146 | 111.28460 | 34014 ft | 506 kts | 251° |
| 2026-05-07 19:14 | 20.74737 | 111.21426 | 34012 ft | 504 kts | 252° |
| 2026-05-07 19:15 | 20.73541 | 111.17896 | 34007 ft | 521 kts | 252° |
| 2026-05-07 19:15 | 20.72369 | 111.14409 | 34011 ft | 522 kts | 252° |
| 2026-05-07 19:15 | 20.71151 | 111.10790 | 34010 ft | 508 kts | 252° |
| 2026-05-07 19:15 | 20.69957 | 111.07243 | 34010 ft | 505 kts | 252° |
| 2026-05-07 19:16 | 20.67586 | 111.00221 | 34010 ft | 509 kts | 252° |
| 2026-05-07 19:16 | 20.65168 | 110.93037 | 34005 ft | 503 kts | 252° |
| 2026-05-07 19:17 | 20.63973 | 110.89549 | 34012 ft | 521 kts | 252° |
| 2026-05-07 19:17 | 20.62812 | 110.86102 | 34014 ft | 474 kts | 252° |
| 2026-05-07 19:17 | 20.60522 | 110.79269 | 34011 ft | 492 kts | 252° |
| 2026-05-07 19:18 | 20.58245 | 110.72466 | 34013 ft | 482 kts | 252° |
| 2026-05-07 19:18 | 20.57115 | 110.69094 | 34012 ft | 567 kts | 252° |
| 2026-05-07 19:18 | 20.55983 | 110.65737 | 34013 ft | 475 kts | 252° |
| 2026-05-07 19:19 | 20.53694 | 110.58939 | 34014 ft | 541 kts | 252° |
| 2026-05-07 19:19 | 20.52570 | 110.55552 | 34011 ft | 511 kts | 252° |
| 2026-05-07 19:19 | 20.51413 | 110.52194 | 34012 ft | 484 kts | 252° |
| 2026-05-07 19:20 | 20.48083 | 110.45973 | 34012 ft | 490 kts | 234° |
| 2026-05-07 19:20 | 20.43764 | 110.40402 | 34011 ft | 478 kts | 232° |
| 2026-05-07 19:21 | 20.39378 | 110.34871 | 34009 ft | 473 kts | 232° |
| 2026-05-07 19:21 | 20.37213 | 110.32088 | 34010 ft | 488 kts | 232° |
| 2026-05-07 19:21 | 20.35061 | 110.29294 | 34015 ft | 490 kts | 233° |
| 2026-05-07 19:22 | 20.31502 | 110.24647 | 34006 ft | 493 kts | 233° |
| 2026-05-07 19:22 | 20.26539 | 110.18096 | 34006 ft | 482 kts | 233° |
| 2026-05-07 19:23 | 20.22313 | 110.12435 | 34008 ft | 487 kts | 233° |
| 2026-05-07 19:23 | 20.20193 | 110.09597 | 34007 ft | 515 kts | 233° |
| 2026-05-07 19:23 | 20.18076 | 110.06767 | 34008 ft | 490 kts | 233° |
| 2026-05-07 19:24 | 20.15950 | 110.03929 | 34008 ft | 508 kts | 233° |
| 2026-05-07 19:24 | 20.13827 | 110.01099 | 34008 ft | 484 kts | 233° |
| 2026-05-07 19:24 | 20.10312 | 109.96423 | 34001 ft | 492 kts | 233° |
| 2026-05-07 19:25 | 20.05300 | 109.89767 | 34005 ft | 491 kts | 233° |
| 2026-05-07 19:25 | 20.01748 | 109.85054 | 34004 ft | 513 kts | 233° |
| 2026-05-07 19:26 | 19.99615 | 109.82222 | 34003 ft | 480 kts | 233° |
| 2026-05-07 19:26 | 19.97482 | 109.79393 | 34002 ft | 499 kts | 233° |
| 2026-05-07 19:26 | 19.93201 | 109.73719 | 34003 ft | 495 kts | 233° |
| 2026-05-07 19:27 | 19.88911 | 109.68036 | 33999 ft | 491 kts | 233° |
| 2026-05-07 19:27 | 19.84626 | 109.62367 | 33995 ft | 511 kts | 233° |
| 2026-05-07 19:28 | 19.82474 | 109.59523 | 33995 ft | 492 kts | 234° |
| 2026-05-07 19:28 | 19.80335 | 109.56699 | 34000 ft | 492 kts | 234° |
| 2026-05-07 19:28 | 19.76052 | 109.51041 | 34000 ft | 504 kts | 234° |
| 2026-05-07 19:29 | 19.73905 | 109.48207 | 33997 ft | 490 kts | 234° |
| 2026-05-07 19:29 | 19.71758 | 109.45376 | 33997 ft | 488 kts | 234° |
| 2026-05-07 19:29 | 19.69610 | 109.42544 | 33995 ft | 517 kts | 234° |
| 2026-05-07 19:29 | 19.67459 | 109.39710 | 34001 ft | 496 kts | 234° |
| 2026-05-07 19:30 | 19.63174 | 109.34068 | 33999 ft | 491 kts | 234° |
| 2026-05-07 19:30 | 19.58860 | 109.28393 | 33998 ft | 497 kts | 234° |
| 2026-05-07 19:31 | 19.54536 | 109.22710 | 33995 ft | 494 kts | 234° |
| 2026-05-07 19:31 | 19.50195 | 109.17013 | 33997 ft | 521 kts | 233° |
| 2026-05-07 19:32 | 19.48020 | 109.14180 | 34002 ft | 489 kts | 233° |
| 2026-05-07 19:32 | 19.45846 | 109.11360 | 33999 ft | 499 kts | 233° |
| 2026-05-07 19:32 | 19.41516 | 109.05751 | 33994 ft | 501 kts | 233° |
| 2026-05-07 19:33 | 19.39319 | 109.02907 | 33979 ft | 520 kts | 233° |
| 2026-05-07 19:33 | 19.37148 | 109.00096 | 33972 ft | 506 kts | 233° |
| 2026-05-07 19:33 | 19.34981 | 108.97290 | 33965 ft | 529 kts | 233° |
| 2026-05-07 19:33 | 19.32824 | 108.94498 | 33999 ft | 482 kts | 233° |
| 2026-05-07 19:34 | 19.28530 | 108.88945 | 33997 ft | 488 kts | 233° |
| 2026-05-07 19:34 | 19.24232 | 108.83392 | 33993 ft | 490 kts | 233° |
| 2026-05-07 19:35 | 19.19940 | 108.77857 | 33996 ft | 485 kts | 233° |
| 2026-05-07 19:35 | 19.15638 | 108.72318 | 33997 ft | 487 kts | 233° |
| 2026-05-07 19:36 | 19.13525 | 108.69591 | 33990 ft | 476 kts | 233° |
| 2026-05-07 19:36 | 19.11372 | 108.66829 | 33997 ft | 496 kts | 233° |
| 2026-05-07 19:36 | 19.07050 | 108.61267 | 33996 ft | 492 kts | 233° |
| 2026-05-07 19:37 | 19.02745 | 108.55729 | 33996 ft | 488 kts | 233° |
| 2026-05-07 19:37 | 18.98412 | 108.50159 | 33993 ft | 493 kts | 233° |
| 2026-05-07 19:38 | 18.94084 | 108.44602 | 33995 ft | 490 kts | 233° |
| 2026-05-07 19:38 | 18.89752 | 108.39046 | 33993 ft | 484 kts | 233° |
| 2026-05-07 19:39 | 18.85425 | 108.33499 | 33995 ft | 534 kts | 233° |
| 2026-05-07 19:39 | 18.83257 | 108.30722 | 33990 ft | 487 kts | 233° |
| 2026-05-07 19:39 | 18.81101 | 108.27961 | 34007 ft | 523 kts | 233° |
| 2026-05-07 19:40 | 18.79074 | 108.25368 | 34008 ft | 496 kts | 233° |
| 2026-05-07 19:40 | 18.76900 | 108.22586 | 34008 ft | 481 kts | 233° |
| 2026-05-07 19:40 | 18.74721 | 108.19803 | 33992 ft | 493 kts | 233° |
| 2026-05-07 19:40 | 18.72524 | 108.16992 | 33992 ft | 512 kts | 233° |
| 2026-05-07 19:41 | 18.70346 | 108.14209 | 33992 ft | 498 kts | 233° |
| 2026-05-07 19:41 | 18.68175 | 108.11437 | 33993 ft | 493 kts | 233° |
| 2026-05-07 19:41 | 18.63778 | 108.05827 | 34003 ft | 500 kts | 233° |
| 2026-05-07 19:42 | 18.59401 | 108.00240 | 33991 ft | 490 kts | 233° |
| 2026-05-07 19:42 | 18.54997 | 107.94626 | 34003 ft | 497 kts | 232° |
| 2026-05-07 19:43 | 18.52798 | 107.91831 | 33987 ft | 552 kts | 232° |
| 2026-05-07 19:43 | 18.50599 | 107.89027 | 33993 ft | 498 kts | 232° |
| 2026-05-07 19:43 | 18.46190 | 107.83419 | 33999 ft | 502 kts | 232° |
| 2026-05-07 19:44 | 18.41772 | 107.77808 | 33984 ft | 524 kts | 232° |
| 2026-05-07 19:44 | 18.39561 | 107.75000 | 34000 ft | 511 kts | 232° |
| 2026-05-07 19:44 | 18.37445 | 107.72126 | 33995 ft | 495 kts | 239° |
| 2026-05-07 19:45 | 18.36006 | 107.68869 | 33981 ft | 491 kts | 255° |
| 2026-05-07 19:45 | 18.35401 | 107.65340 | 33938 ft | 499 kts | 269° |
| 2026-05-07 19:45 | 18.36041 | 107.58348 | 33896 ft | 483 kts | 282° |
| 2026-05-07 19:46 | 18.37395 | 107.51462 | 33888 ft | 480 kts | 284° |
| 2026-05-07 19:46 | 18.38829 | 107.44637 | 33887 ft | 483 kts | 284° |
| 2026-05-07 19:47 | 18.40224 | 107.37788 | 33890 ft | 479 kts | 283° |
| 2026-05-07 19:47 | 18.40905 | 107.34374 | 33891 ft | 497 kts | 283° |
| 2026-05-07 19:47 | 18.41580 | 107.30958 | 33888 ft | 485 kts | 283° |
| 2026-05-07 19:48 | 18.42925 | 107.24139 | 33882 ft | 475 kts | 283° |
| 2026-05-07 19:48 | 18.43597 | 107.20739 | 33881 ft | 489 kts | 283° |
| 2026-05-07 19:48 | 18.44246 | 107.17433 | 33878 ft | 476 kts | 283° |
| 2026-05-07 19:49 | 18.44913 | 107.14017 | 33883 ft | 507 kts | 283° |
| 2026-05-07 19:49 | 18.45596 | 107.10566 | 33888 ft | 475 kts | 283° |
| 2026-05-07 19:49 | 18.46256 | 107.07193 | 33888 ft | 455 kts | 282° |
| 2026-05-07 19:49 | 18.46924 | 107.03811 | 33887 ft | 477 kts | 282° |
| 2026-05-07 19:50 | 18.48233 | 106.97108 | 33889 ft | 469 kts | 282° |
| 2026-05-07 19:50 | 18.49539 | 106.90362 | 33890 ft | 465 kts | 282° |
| 2026-05-07 19:51 | 18.50844 | 106.83630 | 33892 ft | 470 kts | 282° |
| 2026-05-07 19:51 | 18.51495 | 106.80275 | 33890 ft | 482 kts | 282° |
| 2026-05-07 19:51 | 18.52132 | 106.76976 | 33889 ft | 473 kts | 282° |
| 2026-05-07 19:52 | 18.52800 | 106.73556 | 33889 ft | 498 kts | 282° |
| 2026-05-07 19:52 | 18.53448 | 106.70197 | 33892 ft | 467 kts | 282° |
| 2026-05-07 19:52 | 18.54748 | 106.63484 | 33886 ft | 460 kts | 282° |
| 2026-05-07 19:53 | 18.56044 | 106.56789 | 34052 ft | 470 kts | 282° |
| 2026-05-07 19:53 | 18.56698 | 106.53454 | 34392 ft | 476 kts | 283° |
| 2026-05-07 19:53 | 18.57355 | 106.50107 | 34765 ft | 475 kts | 283° |
| 2026-05-07 19:54 | 18.58022 | 106.46726 | 35161 ft | 491 kts | 283° |
| 2026-05-07 19:54 | 18.58692 | 106.43327 | 35558 ft | 476 kts | 283° |
| 2026-05-07 19:54 | 18.59362 | 106.39918 | 35825 ft | 509 kts | 283° |
| 2026-05-07 19:54 | 18.60021 | 106.36502 | 35885 ft | 503 kts | 282° |
| 2026-05-07 19:55 | 18.61372 | 106.29628 | 35892 ft | 481 kts | 282° |
| 2026-05-07 19:55 | 18.62033 | 106.26228 | 35889 ft | 469 kts | 282° |
| 2026-05-07 19:55 | 18.62693 | 106.22812 | 35888 ft | 486 kts | 282° |
| 2026-05-07 19:56 | 18.64010 | 106.16012 | 35885 ft | 457 kts | 282° |
| 2026-05-07 19:56 | 18.64669 | 106.12602 | 35885 ft | 485 kts | 282° |
| 2026-05-07 19:56 | 18.65310 | 106.09294 | 35888 ft | 531 kts | 282° |
| 2026-05-07 19:57 | 18.65974 | 106.05814 | 35887 ft | 465 kts | 282° |
| 2026-05-07 19:57 | 18.66642 | 106.02392 | 35883 ft | 487 kts | 282° |
| 2026-05-07 19:57 | 18.67932 | 105.95637 | 35884 ft | 485 kts | 282° |
| 2026-05-07 19:58 | 18.69241 | 105.88756 | 35887 ft | 483 kts | 282° |
| 2026-05-07 19:58 | 18.70542 | 105.81914 | 35883 ft | 484 kts | 282° |
| 2026-05-07 19:59 | 18.71846 | 105.75055 | 35882 ft | 495 kts | 283° |
| 2026-05-07 19:59 | 18.72495 | 105.71630 | 35882 ft | 480 kts | 283° |
| 2026-05-07 19:59 | 18.73143 | 105.68192 | 35882 ft | 480 kts | 283° |
| 2026-05-07 20:00 | 18.75184 | 105.61578 | 35885 ft | 474 kts | 291° |
| 2026-05-07 20:00 | 18.77435 | 105.55057 | 35885 ft | 471 kts | 291° |
| 2026-05-07 20:01 | 18.79665 | 105.48636 | 35888 ft | 471 kts | 291° |
| 2026-05-07 20:01 | 18.81931 | 105.42063 | 35895 ft | 469 kts | 291° |
| 2026-05-07 20:02 | 18.84138 | 105.35630 | 35897 ft | 470 kts | 291° |
| 2026-05-07 20:02 | 18.86396 | 105.29028 | 35912 ft | 471 kts | 291° |
| 2026-05-07 20:03 | 18.88604 | 105.22561 | 35896 ft | 473 kts | 291° |
| 2026-05-07 20:03 | 18.90820 | 105.16053 | 35902 ft | 472 kts | 291° |
| 2026-05-07 20:04 | 18.93078 | 105.09448 | 35933 ft | 471 kts | 291° |
| 2026-05-07 20:04 | 18.95288 | 105.02945 | 35910 ft | 485 kts | 291° |
| 2026-05-07 20:05 | 18.96400 | 104.99675 | 35908 ft | 472 kts | 291° |
| 2026-05-07 20:05 | 18.97513 | 104.96402 | 35915 ft | 475 kts | 291° |
| 2026-05-07 20:05 | 18.99739 | 104.89842 | 35918 ft | 481 kts | 291° |
| 2026-05-07 20:06 | 19.01962 | 104.83287 | 35918 ft | 468 kts | 291° |
| 2026-05-07 20:06 | 19.04178 | 104.76755 | 35919 ft | 477 kts | 291° |
| 2026-05-07 20:07 | 19.06378 | 104.70244 | 35922 ft | 472 kts | 291° |
| 2026-05-07 20:07 | 19.08591 | 104.63699 | 35942 ft | 471 kts | 291° |
| 2026-05-07 20:08 | 19.10804 | 104.57141 | 35922 ft | 478 kts | 291° |
| 2026-05-07 20:08 | 19.13013 | 104.50580 | 35932 ft | 473 kts | 291° |
| 2026-05-07 20:09 | 19.14120 | 104.47290 | 35938 ft | 496 kts | 291° |
| 2026-05-07 20:09 | 19.15204 | 104.44019 | 35937 ft | 472 kts | 291° |
| 2026-05-07 20:09 | 19.16324 | 104.40729 | 35940 ft | 493 kts | 291° |
| 2026-05-07 20:10 | 19.18524 | 104.34188 | 35941 ft | 483 kts | 291° |
| 2026-05-07 20:10 | 19.19610 | 104.30952 | 35947 ft | 469 kts | 291° |
| 2026-05-07 20:10 | 19.20741 | 104.27577 | 35949 ft | 475 kts | 291° |
| 2026-05-07 20:11 | 19.22931 | 104.21051 | 35953 ft | 476 kts | 291° |
| 2026-05-07 20:11 | 19.25136 | 104.14453 | 35958 ft | 474 kts | 291° |
| 2026-05-07 20:12 | 19.27339 | 104.07862 | 35961 ft | 478 kts | 291° |
| 2026-05-07 20:12 | 19.28440 | 104.04557 | 35958 ft | 467 kts | 291° |
| 2026-05-07 20:12 | 19.29170 | 104.02366 | 35960 ft | 474 kts | 291° |
| 2026-05-07 20:13 | 19.31371 | 103.95768 | 35965 ft | 475 kts | 291° |
| 2026-05-07 20:13 | 19.33565 | 103.89159 | 35971 ft | 474 kts | 291° |
| 2026-05-07 20:14 | 19.35726 | 103.82552 | 35966 ft | 471 kts | 290° |
| 2026-05-07 20:14 | 19.37874 | 103.75963 | 35968 ft | 510 kts | 290° |
| 2026-05-07 20:14 | 19.38940 | 103.72684 | 35969 ft | 469 kts | 290° |
| 2026-05-07 20:15 | 19.40008 | 103.69403 | 35969 ft | 470 kts | 290° |
| 2026-05-07 20:15 | 19.42135 | 103.62857 | 35968 ft | 469 kts | 289° |
| 2026-05-07 20:15 | 19.43201 | 103.59586 | 35971 ft | 453 kts | 289° |
| 2026-05-07 20:16 | 19.44289 | 103.56334 | 35969 ft | 469 kts | 290° |
| 2026-05-07 20:16 | 19.45399 | 103.53075 | 35971 ft | 485 kts | 290° |
| 2026-05-07 20:16 | 19.46511 | 103.49826 | 35973 ft | 468 kts | 290° |
| 2026-05-07 20:16 | 19.47624 | 103.46576 | 35974 ft | 479 kts | 290° |
| 2026-05-07 20:17 | 19.48739 | 103.43326 | 35972 ft | 468 kts | 290° |
| 2026-05-07 20:17 | 19.50955 | 103.36832 | 35975 ft | 468 kts | 290° |
| 2026-05-07 20:18 | 19.53152 | 103.30357 | 35967 ft | 468 kts | 290° |
| 2026-05-07 20:18 | 19.55359 | 103.23848 | 35966 ft | 469 kts | 290° |
| 2026-05-07 20:19 | 19.57565 | 103.17330 | 35967 ft | 469 kts | 290° |
| 2026-05-07 20:19 | 19.59769 | 103.10815 | 35958 ft | 471 kts | 289° |
| 2026-05-07 20:20 | 19.61971 | 103.04291 | 35962 ft | 468 kts | 289° |
| 2026-05-07 20:20 | 19.64171 | 102.97771 | 35977 ft | 467 kts | 289° |
| 2026-05-07 20:21 | 19.66366 | 102.91251 | 35992 ft | 467 kts | 289° |
| 2026-05-07 20:21 | 19.68538 | 102.84795 | 35951 ft | 467 kts | 289° |
| 2026-05-07 20:22 | 19.70729 | 102.78276 | 35951 ft | 468 kts | 289° |
| 2026-05-07 20:22 | 19.72940 | 102.71682 | 35946 ft | 461 kts | 289° |
| 2026-05-07 20:23 | 19.75114 | 102.65194 | 35947 ft | 475 kts | 289° |
| 2026-05-07 20:23 | 19.77312 | 102.58629 | 35937 ft | 466 kts | 289° |
| 2026-05-07 20:24 | 19.79471 | 102.52159 | 35942 ft | 472 kts | 289° |
| 2026-05-07 20:24 | 19.81642 | 102.45654 | 35939 ft | 475 kts | 289° |
| 2026-05-07 20:25 | 19.83807 | 102.39155 | 35934 ft | 466 kts | 289° |
| 2026-05-07 20:25 | 19.85971 | 102.32650 | 35926 ft | 469 kts | 289° |
| 2026-05-07 20:26 | 19.88133 | 102.26149 | 35929 ft | 469 kts | 289° |
| 2026-05-07 20:26 | 19.90299 | 102.19619 | 35928 ft | 481 kts | 289° |
| 2026-05-07 20:26 | 19.91635 | 102.16472 | 35929 ft | 470 kts | 298° |
| 2026-05-07 20:27 | 19.93231 | 102.13454 | 35930 ft | 488 kts | 298° |
| 2026-05-07 20:27 | 19.94816 | 102.10438 | 35926 ft | 475 kts | 298° |
| 2026-05-07 20:27 | 19.96397 | 102.07419 | 35926 ft | 469 kts | 298° |
| 2026-05-07 20:28 | 19.99594 | 102.01403 | 35933 ft | 469 kts | 298° |
| 2026-05-07 20:28 | 20.02829 | 101.95373 | 35939 ft | 463 kts | 298° |
| 2026-05-07 20:29 | 20.06070 | 101.89342 | 35931 ft | 475 kts | 298° |
| 2026-05-07 20:29 | 20.09302 | 101.83328 | 35937 ft | 467 kts | 298° |
| 2026-05-07 20:30 | 20.12534 | 101.77309 | 35941 ft | 474 kts | 298° |
| 2026-05-07 20:30 | 20.15764 | 101.71266 | 35946 ft | 471 kts | 298° |
| 2026-05-07 20:31 | 20.18968 | 101.65271 | 35944 ft | 479 kts | 298° |
| 2026-05-07 20:31 | 20.20576 | 101.62261 | 35945 ft | 466 kts | 298° |
| 2026-05-07 20:31 | 20.22192 | 101.59234 | 35952 ft | 470 kts | 298° |
| 2026-05-07 20:32 | 20.25383 | 101.53251 | 35943 ft | 466 kts | 298° |
| 2026-05-07 20:32 | 20.28630 | 101.47158 | 35946 ft | 469 kts | 298° |
| 2026-05-07 20:33 | 20.31849 | 101.41109 | 35944 ft | 494 kts | 297° |
| 2026-05-07 20:33 | 20.33451 | 101.38099 | 35945 ft | 468 kts | 297° |
| 2026-05-07 20:33 | 20.35055 | 101.35085 | 35950 ft | 473 kts | 297° |
| 2026-05-07 20:34 | 20.38261 | 101.29044 | 35950 ft | 469 kts | 297° |
| 2026-05-07 20:34 | 20.41463 | 101.23010 | 35956 ft | 469 kts | 297° |
| 2026-05-07 20:35 | 20.44662 | 101.16975 | 35956 ft | 467 kts | 297° |
| 2026-05-07 20:35 | 20.47862 | 101.10937 | 35957 ft | 468 kts | 297° |
| 2026-05-07 20:36 | 20.51060 | 101.04885 | 35964 ft | 463 kts | 297° |
| 2026-05-07 20:36 | 20.54240 | 100.98865 | 35961 ft | 466 kts | 297° |
| 2026-05-07 20:37 | 20.57463 | 100.92754 | 35974 ft | 466 kts | 297° |
| 2026-05-07 20:37 | 20.60635 | 100.86743 | 35967 ft | 466 kts | 297° |
| 2026-05-07 20:38 | 20.63832 | 100.80670 | 35964 ft | 480 kts | 297° |
| 2026-05-07 20:38 | 20.65429 | 100.77636 | 35962 ft | 469 kts | 297° |
| 2026-05-07 20:38 | 20.67030 | 100.74591 | 35965 ft | 485 kts | 297° |
| 2026-05-07 20:39 | 20.70223 | 100.68515 | 35961 ft | 460 kts | 297° |
| 2026-05-07 20:39 | 20.71788 | 100.65534 | 35961 ft | 494 kts | 297° |
| 2026-05-07 20:39 | 20.73402 | 100.62460 | 35961 ft | 470 kts | 297° |
| 2026-05-07 20:40 | 20.76615 | 100.56327 | 35966 ft | 468 kts | 296° |
| 2026-05-07 20:40 | 20.79782 | 100.50288 | 35959 ft | 470 kts | 297° |
| 2026-05-07 20:41 | 20.82346 | 100.43911 | 35964 ft | 466 kts | 286° |
| 2026-05-07 20:41 | 20.84255 | 100.37290 | 35959 ft | 467 kts | 284° |
| 2026-05-07 20:41 | 20.84850 | 100.35094 | 35962 ft | 486 kts | 284° |
| 2026-05-07 20:42 | 20.85162 | 100.33951 | 35961 ft | 471 kts | 284° |
| 2026-05-07 20:42 | 20.87840 | 100.23958 | 35964 ft | 473 kts | 284° |
| 2026-05-07 20:43 | 20.89633 | 100.17301 | 35965 ft | 466 kts | 284° |
| 2026-05-07 20:43 | 20.91434 | 100.10637 | 35965 ft | 468 kts | 284° |
| 2026-05-07 20:44 | 20.93219 | 100.04025 | 35967 ft | 491 kts | 284° |
| 2026-05-07 20:44 | 20.94132 | 100.00644 | 35972 ft | 467 kts | 284° |
| 2026-05-07 20:44 | 20.95009 | 99.97384 | 35974 ft | 465 kts | 284° |
| 2026-05-07 20:45 | 20.96811 | 99.90678 | 35977 ft | 466 kts | 284° |
| 2026-05-07 20:45 | 20.98591 | 99.84050 | 35978 ft | 463 kts | 284° |
| 2026-05-07 20:46 | 21.00387 | 99.77349 | 35978 ft | 466 kts | 284° |
| 2026-05-07 20:46 | 21.02170 | 99.70696 | 35980 ft | 458 kts | 284° |
| 2026-05-07 20:46 | 21.03059 | 99.67359 | 35986 ft | 472 kts | 284° |
| 2026-05-07 20:47 | 21.03962 | 99.63966 | 36001 ft | 453 kts | 283° |
| 2026-05-07 20:47 | 21.04835 | 99.60703 | 35982 ft | 472 kts | 284° |
| 2026-05-07 20:47 | 21.05720 | 99.57382 | 35984 ft | 469 kts | 284° |
| 2026-05-07 20:47 | 21.06307 | 99.55177 | 35980 ft | 485 kts | 284° |
| 2026-05-07 20:48 | 21.07487 | 99.50743 | 35982 ft | 459 kts | 284° |
| 2026-05-07 20:48 | 21.08370 | 99.47420 | 35983 ft | 471 kts | 284° |
| 2026-05-07 20:48 | 21.09232 | 99.44179 | 35982 ft | 471 kts | 284° |
| 2026-05-07 20:49 | 21.11010 | 99.37476 | 35979 ft | 471 kts | 284° |
| 2026-05-07 20:49 | 21.12770 | 99.30827 | 35978 ft | 462 kts | 284° |
| 2026-05-07 20:50 | 21.14514 | 99.24232 | 35974 ft | 462 kts | 284° |
| 2026-05-07 20:50 | 21.16267 | 99.17591 | 35971 ft | 465 kts | 284° |
| 2026-05-07 20:51 | 21.18018 | 99.10943 | 35964 ft | 462 kts | 284° |
| 2026-05-07 20:51 | 21.19765 | 99.04303 | 35960 ft | 462 kts | 284° |
| 2026-05-07 20:52 | 21.21510 | 98.97656 | 35956 ft | 465 kts | 284° |
| 2026-05-07 20:52 | 21.23253 | 98.91008 | 35953 ft | 448 kts | 284° |
| 2026-05-07 20:52 | 21.23829 | 98.88809 | 35948 ft | 476 kts | 284° |
| 2026-05-07 20:53 | 21.24995 | 98.84357 | 35947 ft | 476 kts | 284° |
| 2026-05-07 20:53 | 21.26719 | 98.77751 | 35939 ft | 476 kts | 284° |
| 2026-05-07 20:54 | 21.28469 | 98.71039 | 35938 ft | 466 kts | 283° |
| 2026-05-07 20:54 | 21.29334 | 98.67714 | 35937 ft | 484 kts | 283° |
| 2026-05-07 20:54 | 21.30191 | 98.64424 | 35928 ft | 463 kts | 283° |
| 2026-05-07 20:54 | 21.30757 | 98.62255 | 35937 ft | 484 kts | 283° |
| 2026-05-07 20:55 | 21.31931 | 98.57727 | 35933 ft | 467 kts | 283° |
| 2026-05-07 20:55 | 21.33368 | 98.52192 | 35935 ft | 459 kts | 283° |
| 2026-05-07 20:56 | 21.33896 | 98.50182 | 35934 ft | 451 kts | 283° |
| 2026-05-07 20:56 | 21.34473 | 98.47933 | 35937 ft | 480 kts | 283° |
| 2026-05-07 20:56 | 21.37337 | 98.36850 | 35938 ft | 450 kts | 283° |
| 2026-05-07 20:57 | 21.38765 | 98.31310 | 35939 ft | 471 kts | 283° |
| 2026-05-07 20:57 | 21.40192 | 98.25771 | 35939 ft | 463 kts | 283° |
| 2026-05-07 20:58 | 21.42169 | 98.18082 | 35945 ft | 462 kts | 283° |
| 2026-05-07 20:58 | 21.43592 | 98.12545 | 35949 ft | 463 kts | 283° |
| 2026-05-07 20:59 | 21.45301 | 98.05874 | 35949 ft | 483 kts | 283° |
| 2026-05-07 20:59 | 21.46154 | 98.02542 | 35952 ft | 463 kts | 283° |
| 2026-05-07 20:59 | 21.47005 | 97.99216 | 35951 ft | 483 kts | 283° |
| 2026-05-07 20:59 | 21.47861 | 97.95874 | 35953 ft | 524 kts | 283° |
| 2026-05-07 21:00 | 21.48713 | 97.92528 | 35955 ft | 455 kts | 283° |
| 2026-05-07 21:00 | 21.50381 | 97.85878 | 35960 ft | 469 kts | 284° |
| 2026-05-07 21:01 | 21.52044 | 97.79300 | 35960 ft | 461 kts | 284° |
| 2026-05-07 21:01 | 21.53729 | 97.72764 | 35961 ft | 452 kts | 284° |
| 2026-05-07 21:02 | 21.55403 | 97.66243 | 35958 ft | 455 kts | 284° |
| 2026-05-07 21:02 | 21.56487 | 97.61984 | 35958 ft | 450 kts | 284° |
| 2026-05-07 21:04 | 21.62964 | 97.36250 | 35939 ft | 475 kts | 284° |
| 2026-05-07 21:04 | 21.63795 | 97.32994 | 35939 ft | 452 kts | 284° |
| 2026-05-07 21:05 | 21.65425 | 97.26506 | 35937 ft | 449 kts | 284° |
| 2026-05-07 21:05 | 21.66237 | 97.23262 | 35933 ft | 469 kts | 284° |
| 2026-05-07 21:05 | 21.67049 | 97.20012 | 35929 ft | 451 kts | 284° |
| 2026-05-07 21:06 | 21.68669 | 97.13532 | 35924 ft | 457 kts | 284° |
| 2026-05-07 21:06 | 21.70280 | 97.07074 | 35920 ft | 464 kts | 284° |
| 2026-05-07 21:06 | 21.71083 | 97.03835 | 35921 ft | 438 kts | 284° |
| 2026-05-07 21:07 | 21.71895 | 97.00591 | 35920 ft | 452 kts | 284° |
| 2026-05-07 21:07 | 21.72698 | 96.97369 | 35917 ft | 439 kts | 284° |
| 2026-05-07 21:07 | 21.73503 | 96.94124 | 35918 ft | 482 kts | 284° |
| 2026-05-07 21:07 | 21.74304 | 96.90897 | 35913 ft | 449 kts | 284° |
| 2026-05-07 21:08 | 21.75107 | 96.87667 | 35916 ft | 477 kts | 283° |
| 2026-05-07 21:08 | 21.75637 | 96.85527 | 35915 ft | 448 kts | 283° |
| 2026-05-07 21:08 | 21.76701 | 96.81229 | 35913 ft | 431 kts | 283° |
| 2026-05-07 21:09 | 21.78290 | 96.74810 | 35907 ft | 439 kts | 283° |
| 2026-05-07 21:09 | 21.79096 | 96.71550 | 35907 ft | 453 kts | 283° |
| 2026-05-07 21:09 | 21.79879 | 96.68367 | 35904 ft | 579 kts | 283° |
| 2026-05-07 21:09 | 21.80685 | 96.65104 | 35905 ft | 433 kts | 283° |
| 2026-05-07 21:10 | 21.81474 | 96.61892 | 35901 ft | 447 kts | 283° |
| 2026-05-07 21:10 | 21.83049 | 96.55488 | 35894 ft | 453 kts | 283° |
| 2026-05-07 21:11 | 21.84634 | 96.49036 | 35889 ft | 443 kts | 283° |
| 2026-05-07 21:11 | 21.85163 | 96.46880 | 35888 ft | 457 kts | 283° |
| 2026-05-07 21:11 | 21.87005 | 96.39360 | 35878 ft | 472 kts | 283° |
| 2026-05-07 21:12 | 21.87515 | 96.37253 | 35876 ft | 459 kts | 283° |
| 2026-05-07 21:12 | 21.88580 | 96.32946 | 35868 ft | 447 kts | 283° |
| 2026-05-07 21:12 | 21.89361 | 96.29714 | 35869 ft | 488 kts | 283° |
| 2026-05-07 21:12 | 21.89886 | 96.27576 | 35864 ft | 433 kts | 283° |
| 2026-05-07 21:13 | 21.90916 | 96.23336 | 35856 ft | 444 kts | 283° |
| 2026-05-07 21:13 | 21.91452 | 96.21132 | 35855 ft | 447 kts | 283° |
| 2026-05-07 21:13 | 21.93021 | 96.14681 | 35849 ft | 478 kts | 283° |
| 2026-05-07 21:14 | 21.93587 | 96.11414 | 35846 ft | 454 kts | 276° |
| 2026-05-07 21:14 | 21.93910 | 96.08239 | 35841 ft | 449 kts | 275° |
| 2026-05-07 21:14 | 21.94205 | 96.04929 | 35840 ft | 421 kts | 274° |
| 2026-05-07 21:14 | 21.94478 | 96.01603 | 35837 ft | 433 kts | 274° |
| 2026-05-07 21:15 | 21.95007 | 95.95066 | 35821 ft | 452 kts | 274° |
| 2026-05-07 21:15 | 21.95564 | 95.88443 | 35833 ft | 443 kts | 274° |
| 2026-05-07 21:16 | 21.96132 | 95.81842 | 35835 ft | 442 kts | 274° |
| 2026-05-07 21:16 | 21.96703 | 95.75247 | 35822 ft | 460 kts | 274° |
| 2026-05-07 21:17 | 21.96988 | 95.71950 | 35820 ft | 441 kts | 274° |
| 2026-05-07 21:17 | 21.97272 | 95.68646 | 35831 ft | 450 kts | 274° |
| 2026-05-07 21:17 | 21.97848 | 95.61889 | 35823 ft | 470 kts | 274° |
| 2026-05-07 21:18 | 21.98420 | 95.55132 | 35839 ft | 446 kts | 274° |
| 2026-05-07 21:18 | 21.98994 | 95.48320 | 35830 ft | 460 kts | 274° |
| 2026-05-07 21:19 | 21.99559 | 95.41553 | 35832 ft | 480 kts | 274° |
| 2026-05-07 21:19 | 21.99844 | 95.38164 | 35833 ft | 460 kts | 274° |
| 2026-05-07 21:19 | 22.00126 | 95.34763 | 35832 ft | 456 kts | 274° |
| 2026-05-07 21:20 | 22.00689 | 95.27975 | 35834 ft | 453 kts | 274° |
| 2026-05-07 21:20 | 22.01249 | 95.21205 | 35837 ft | 454 kts | 274° |
| 2026-05-07 21:21 | 22.01804 | 95.14432 | 35839 ft | 462 kts | 273° |
| 2026-05-07 21:21 | 22.02354 | 95.07704 | 35823 ft | 453 kts | 273° |
| 2026-05-07 21:22 | 22.02903 | 95.00937 | 35845 ft | 452 kts | 273° |
| 2026-05-07 21:22 | 22.03451 | 94.94169 | 35838 ft | 446 kts | 273° |
| 2026-05-07 21:23 | 22.03995 | 94.87408 | 35846 ft | 451 kts | 273° |
| 2026-05-07 21:23 | 22.04536 | 94.80644 | 35845 ft | 452 kts | 273° |
| 2026-05-07 21:24 | 22.05074 | 94.73883 | 35854 ft | 452 kts | 273° |
| 2026-05-07 21:24 | 22.05609 | 94.67118 | 35857 ft | 451 kts | 273° |
| 2026-05-07 21:25 | 22.06142 | 94.60354 | 35863 ft | 455 kts | 273° |
| 2026-05-07 21:25 | 22.06672 | 94.53586 | 35869 ft | 451 kts | 272° |
| 2026-05-07 21:26 | 22.07200 | 94.46818 | 35871 ft | 453 kts | 272° |
| 2026-05-07 21:26 | 22.07725 | 94.40042 | 35872 ft | 452 kts | 272° |
| 2026-05-07 21:27 | 22.08247 | 94.33265 | 35880 ft | 453 kts | 272° |
| 2026-05-07 21:27 | 22.08763 | 94.26541 | 35876 ft | 452 kts | 272° |
| 2026-05-07 21:28 | 22.09281 | 94.19742 | 35882 ft | 453 kts | 272° |
| 2026-05-07 21:28 | 22.09793 | 94.12987 | 35884 ft | 454 kts | 272° |
| 2026-05-07 21:29 | 22.10305 | 94.06206 | 35892 ft | 456 kts | 272° |
| 2026-05-07 21:29 | 22.10813 | 93.99434 | 35893 ft | 453 kts | 272° |
| 2026-05-07 21:30 | 22.11319 | 93.92647 | 35906 ft | 455 kts | 272° |
| 2026-05-07 21:30 | 22.11823 | 93.85860 | 35915 ft | 456 kts | 272° |
| 2026-05-07 21:31 | 22.12323 | 93.79085 | 35927 ft | 458 kts | 272° |
| 2026-05-07 21:31 | 22.12820 | 93.72294 | 35941 ft | 449 kts | 272° |
| 2026-05-07 21:32 | 22.13315 | 93.65507 | 35948 ft | 453 kts | 271° |
| 2026-05-07 21:32 | 22.13804 | 93.58763 | 35956 ft | 457 kts | 271° |
| 2026-05-07 21:33 | 22.14293 | 93.51978 | 35964 ft | 453 kts | 271° |
| 2026-05-07 21:33 | 22.14780 | 93.45180 | 35968 ft | 453 kts | 271° |
| 2026-05-07 21:34 | 22.15264 | 93.38393 | 35967 ft | 454 kts | 271° |
| 2026-05-07 21:34 | 22.15744 | 93.31608 | 35961 ft | 454 kts | 271° |
| 2026-05-07 21:35 | 22.16223 | 93.24812 | 35952 ft | 454 kts | 271° |
| 2026-05-07 21:35 | 22.16695 | 93.18061 | 35947 ft | 452 kts | 271° |
| 2026-05-07 21:36 | 22.17167 | 93.11282 | 35932 ft | 453 kts | 271° |
| 2026-05-07 21:36 | 22.17637 | 93.04478 | 35923 ft | 449 kts | 271° |
| 2026-05-07 21:37 | 22.18103 | 92.97702 | 35919 ft | 466 kts | 271° |
| 2026-05-07 21:37 | 22.18335 | 92.94312 | 35913 ft | 451 kts | 271° |
| 2026-05-07 21:37 | 22.18563 | 92.90976 | 35914 ft | 469 kts | 271° |
| 2026-05-07 21:38 | 22.18797 | 92.87528 | 35906 ft | 449 kts | 271° |
| 2026-05-07 21:38 | 22.19026 | 92.84141 | 35904 ft | 456 kts | 271° |
| 2026-05-07 21:38 | 22.19484 | 92.77359 | 35896 ft | 450 kts | 270° |
| 2026-05-07 21:39 | 22.19936 | 92.70626 | 35891 ft | 453 kts | 270° |
| 2026-05-07 21:39 | 22.20387 | 92.63839 | 35887 ft | 450 kts | 270° |
| 2026-05-07 21:40 | 22.20807 | 92.57039 | 35884 ft | 455 kts | 270° |
| 2026-05-07 21:40 | 22.21206 | 92.50216 | 35880 ft | 445 kts | 270° |
| 2026-05-07 21:41 | 22.21407 | 92.46799 | 35878 ft | 460 kts | 270° |
| 2026-05-07 21:41 | 22.21611 | 92.43377 | 35880 ft | 457 kts | 270° |
| 2026-05-07 21:41 | 22.22022 | 92.36505 | 35873 ft | 461 kts | 270° |
| 2026-05-07 21:42 | 22.22229 | 92.33058 | 35877 ft | 472 kts | 270° |
| 2026-05-07 21:42 | 22.22435 | 92.29605 | 35875 ft | 442 kts | 271° |
| 2026-05-07 21:42 | 22.22641 | 92.26160 | 35872 ft | 461 kts | 271° |
| 2026-05-07 21:42 | 22.22874 | 92.22691 | 35867 ft | 474 kts | 271° |
| 2026-05-07 21:43 | 22.23388 | 92.15767 | 35865 ft | 461 kts | 272° |
| 2026-05-07 21:43 | 22.23645 | 92.12336 | 35866 ft | 482 kts | 272° |
| 2026-05-07 21:43 | 22.23901 | 92.08867 | 35865 ft | 476 kts | 272° |
| 2026-05-07 21:44 | 22.24154 | 92.05385 | 35864 ft | 460 kts | 272° |
| 2026-05-07 21:44 | 22.24407 | 92.01846 | 35873 ft | 471 kts | 271° |
| 2026-05-07 21:44 | 22.24901 | 91.94928 | 35869 ft | 462 kts | 272° |
| 2026-05-07 21:45 | 22.25442 | 91.87937 | 35867 ft | 466 kts | 276° |
| 2026-05-07 21:45 | 22.26356 | 91.84549 | 35865 ft | 468 kts | 290° |
| 2026-05-07 21:45 | 22.28002 | 91.81515 | 35870 ft | 486 kts | 303° |
| 2026-05-07 21:46 | 22.32808 | 91.76293 | 35871 ft | 486 kts | 314° |
| 2026-05-07 21:46 | 22.37979 | 91.71667 | 35861 ft | 474 kts | 316° |
| 2026-05-07 21:47 | 22.43162 | 91.67125 | 35397 ft | 531 kts | 315° |
| 2026-05-07 21:47 | 22.45747 | 91.64830 | 34928 ft | 492 kts | 314° |
| 2026-05-07 21:47 | 22.48263 | 91.62585 | 34366 ft | 472 kts | 314° |
| 2026-05-07 21:48 | 22.50738 | 91.60364 | 33792 ft | 472 kts | 313° |
| 2026-05-07 21:48 | 22.53182 | 91.58163 | 33223 ft | 461 kts | 313° |
| 2026-05-07 21:48 | 22.55678 | 91.55908 | 32644 ft | 454 kts | 312° |
| 2026-05-07 21:48 | 22.58122 | 91.53701 | 32079 ft | 463 kts | 311° |
| 2026-05-07 21:49 | 22.60534 | 91.51516 | 31527 ft | 445 kts | 311° |
| 2026-05-07 21:49 | 22.62964 | 91.49310 | 30974 ft | 459 kts | 311° |
| 2026-05-07 21:49 | 22.65340 | 91.47141 | 30461 ft | 436 kts | 310° |
| 2026-05-07 21:49 | 22.67685 | 91.44998 | 30109 ft | 428 kts | 310° |
| 2026-05-07 21:50 | 22.70003 | 91.42862 | 29782 ft | 448 kts | 311° |
| 2026-05-07 21:50 | 22.71534 | 91.41451 | 29528 ft | 433 kts | 311° |
| 2026-05-07 21:50 | 22.74598 | 91.38637 | 28946 ft | 434 kts | 311° |
| 2026-05-07 21:50 | 22.76856 | 91.36576 | 28585 ft | 416 kts | 312° |
| 2026-05-07 21:51 | 22.79107 | 91.34526 | 28239 ft | 423 kts | 312° |
| 2026-05-07 21:51 | 22.81334 | 91.32499 | 27805 ft | 430 kts | 313° |
| 2026-05-07 21:51 | 22.83485 | 91.30542 | 27412 ft | 411 kts | 313° |
| 2026-05-07 21:51 | 22.85697 | 91.28532 | 27068 ft | 409 kts | 313° |
| 2026-05-07 21:52 | 22.87874 | 91.26554 | 26717 ft | 409 kts | 314° |
| 2026-05-07 21:52 | 22.90039 | 91.24599 | 26274 ft | 402 kts | 314° |
| 2026-05-07 21:52 | 22.92174 | 91.22675 | 25890 ft | 407 kts | 314° |
| 2026-05-07 21:52 | 22.94235 | 91.20818 | 25537 ft | 397 kts | 314° |
| 2026-05-07 21:53 | 22.95617 | 91.19569 | 25269 ft | 394 kts | 314° |
| 2026-05-07 21:53 | 22.97772 | 91.17616 | 24846 ft | 383 kts | 314° |
| 2026-05-07 21:53 | 22.99850 | 91.15728 | 24495 ft | 386 kts | 313° |
| 2026-05-07 21:53 | 23.02553 | 91.13264 | 24000 ft | 409 kts | 313° |
| 2026-05-07 21:54 | 23.04640 | 91.11359 | 23580 ft | 387 kts | 313° |
| 2026-05-07 21:54 | 23.06652 | 91.09520 | 23209 ft | 391 kts | 313° |
| 2026-05-07 21:54 | 23.08696 | 91.07653 | 22866 ft | 412 kts | 313° |
| 2026-05-07 21:54 | 23.10707 | 91.05814 | 22463 ft | 405 kts | 313° |
| 2026-05-07 21:55 | 23.12027 | 91.04606 | 22184 ft | 381 kts | 313° |
| 2026-05-07 21:55 | 23.14682 | 91.02179 | 21732 ft | 375 kts | 313° |
| 2026-05-07 21:55 | 23.16653 | 91.00373 | 21355 ft | 384 kts | 313° |
| 2026-05-07 21:55 | 23.17956 | 90.99178 | 21080 ft | 373 kts | 313° |
| 2026-05-07 21:56 | 23.20561 | 90.96808 | 20587 ft | 368 kts | 314° |
| 2026-05-07 21:56 | 23.21834 | 90.95675 | 20374 ft | 356 kts | 314° |
| 2026-05-07 21:56 | 23.24483 | 90.93313 | 19829 ft | 371 kts | 314° |
| 2026-05-07 21:56 | 23.25777 | 90.92144 | 19575 ft | 363 kts | 314° |
| 2026-05-07 21:57 | 23.27694 | 90.90433 | 19242 ft | 353 kts | 314° |
| 2026-05-07 21:57 | 23.29614 | 90.88714 | 18889 ft | 350 kts | 314° |
| 2026-05-07 21:57 | 23.32136 | 90.86444 | 18349 ft | 363 kts | 314° |
| 2026-05-07 21:57 | 23.33432 | 90.85359 | 18106 ft | 364 kts | 320° |
| 2026-05-07 21:58 | 23.35626 | 90.84092 | 17747 ft | 346 kts | 329° |
| 2026-05-07 21:58 | 23.37924 | 90.83022 | 17394 ft | 373 kts | 332° |
| 2026-05-07 21:58 | 23.40244 | 90.82038 | 17004 ft | 353 kts | 333° |
| 2026-05-07 21:58 | 23.42564 | 90.81089 | 16645 ft | 359 kts | 333° |
| 2026-05-07 21:59 | 23.44866 | 90.80145 | 16300 ft | 351 kts | 333° |
| 2026-05-07 21:59 | 23.47149 | 90.79192 | 15919 ft | 359 kts | 333° |
| 2026-05-07 21:59 | 23.49421 | 90.78224 | 15543 ft | 363 kts | 332° |
| 2026-05-07 21:59 | 23.51607 | 90.77221 | 15223 ft | 345 kts | 331° |
| 2026-05-07 22:00 | 23.53828 | 90.76152 | 14848 ft | 348 kts | 331° |
| 2026-05-07 22:00 | 23.55966 | 90.75105 | 14464 ft | 336 kts | 331° |
| 2026-05-07 22:00 | 23.58151 | 90.74039 | 14143 ft | 349 kts | 331° |
| 2026-05-07 22:00 | 23.60244 | 90.73018 | 13812 ft | 328 kts | 331° |
| 2026-05-07 22:01 | 23.62417 | 90.71964 | 13418 ft | 344 kts | 331° |
| 2026-05-07 22:01 | 23.64539 | 90.70938 | 13101 ft | 343 kts | 332° |
| 2026-05-07 22:01 | 23.66656 | 90.69917 | 12762 ft | 340 kts | 332° |
| 2026-05-07 22:01 | 23.68974 | 90.68800 | 12357 ft | 337 kts | 332° |
| 2026-05-07 22:02 | 23.71058 | 90.67778 | 12033 ft | 324 kts | 329° |
| 2026-05-07 22:02 | 23.72837 | 90.66482 | 11712 ft | 330 kts | 319° |
| 2026-05-07 22:02 | 23.74600 | 90.64972 | 11362 ft | 312 kts | 317° |
| 2026-05-07 22:02 | 23.76316 | 90.63417 | 11031 ft | 322 kts | 317° |
| 2026-05-07 22:03 | 23.78011 | 90.61855 | 10701 ft | 313 kts | 317° |
| 2026-05-07 22:03 | 23.79682 | 90.60316 | 10511 ft | 304 kts | 317° |
| 2026-05-07 22:03 | 23.81278 | 90.58862 | 10396 ft | 305 kts | 318° |
| 2026-05-07 22:03 | 23.82836 | 90.57519 | 10266 ft | 286 kts | 319° |
| 2026-05-07 22:04 | 23.84352 | 90.56218 | 10128 ft | 277 kts | 319° |
| 2026-05-07 22:04 | 23.85856 | 90.54942 | 9958 ft | 272 kts | 319° |
| 2026-05-07 22:04 | 23.87379 | 90.53642 | 9644 ft | 282 kts | 319° |
| 2026-05-07 22:04 | 23.88895 | 90.52348 | 9389 ft | 275 kts | 319° |
| 2026-05-07 22:05 | 23.90388 | 90.51077 | 9152 ft | 274 kts | 320° |
| 2026-05-07 22:05 | 23.91898 | 90.49839 | 8895 ft | 276 kts | 320° |
| 2026-05-07 22:05 | 23.93403 | 90.48613 | 8650 ft | 271 kts | 320° |
| 2026-05-07 22:05 | 23.94909 | 90.47388 | 8404 ft | 274 kts | 320° |
| 2026-05-07 22:06 | 23.96409 | 90.46167 | 8153 ft | 268 kts | 320° |
| 2026-05-07 22:06 | 23.97888 | 90.44960 | 7905 ft | 269 kts | 320° |
| 2026-05-07 22:06 | 23.99410 | 90.43714 | 7639 ft | 268 kts | 320° |
| 2026-05-07 22:06 | 24.00404 | 90.42901 | 7478 ft | 269 kts | 320° |
| 2026-05-07 22:07 | 24.05460 | 90.38752 | 6598 ft | 287 kts | 320° |
| 2026-05-07 22:07 | 24.06944 | 90.37557 | 6344 ft | 265 kts | 321° |
| 2026-05-07 22:08 | 24.08415 | 90.36391 | 6092 ft | 258 kts | 321° |
| 2026-05-07 22:08 | 24.09847 | 90.35260 | 5848 ft | 251 kts | 321° |
| 2026-05-07 22:08 | 24.11187 | 90.34186 | 5597 ft | 235 kts | 320° |
| 2026-05-07 22:08 | 24.12244 | 90.32921 | 5391 ft | 210 kts | 297° |
| 2026-05-07 22:09 | 24.12851 | 90.31468 | 5198 ft | 206 kts | 280° |
| 2026-05-07 22:09 | 24.12840 | 90.30011 | 5019 ft | 184 kts | 252° |
| 2026-05-07 22:09 | 24.12103 | 90.29009 | 4861 ft | 173 kts | 202° |
| 2026-05-07 22:09 | 24.10892 | 90.28785 | 4736 ft | 178 kts | 187° |
| 2026-05-07 22:10 | 24.09693 | 90.28653 | 4666 ft | 171 kts | 187° |
| 2026-05-07 22:10 | 24.08490 | 90.28525 | 4596 ft | 173 kts | 187° |
| 2026-05-07 22:10 | 24.07287 | 90.28399 | 4444 ft | 174 kts | 186° |
| 2026-05-07 22:10 | 24.06086 | 90.28281 | 4266 ft | 172 kts | 183° |
| 2026-05-07 22:11 | 24.04882 | 90.28282 | 4089 ft | 179 kts | 180° |
| 2026-05-07 22:11 | 24.03680 | 90.28309 | 3890 ft | 174 kts | 180° |
| 2026-05-07 22:11 | 24.02469 | 90.28340 | 3703 ft | 175 kts | 180° |
| 2026-05-07 22:11 | 24.01247 | 90.28368 | 3459 ft | 182 kts | 180° |
| 2026-05-07 22:12 | 24.00014 | 90.28423 | 3238 ft | 171 kts | 171° |
| 2026-05-07 22:12 | 23.98910 | 90.28832 | 3055 ft | 165 kts | 161° |
| 2026-05-07 22:12 | 23.97874 | 90.29265 | 2798 ft | 157 kts | 156° |
| 2026-05-07 22:12 | 23.96973 | 90.29838 | 2677 ft | 151 kts | 144° |
| 2026-05-07 22:13 | 23.96126 | 90.30492 | 2551 ft | 155 kts | 149° |
| 2026-05-07 22:13 | 23.95207 | 90.31163 | 2315 ft | 165 kts | 146° |
| 2026-05-07 22:13 | 23.94291 | 90.31889 | 2105 ft | 163 kts | 145° |
| 2026-05-07 22:13 | 23.93374 | 90.32608 | 1871 ft | 164 kts | 146° |
| 2026-05-07 22:14 | 23.92437 | 90.33330 | 1676 ft | 160 kts | 146° |
| 2026-05-07 22:14 | 23.91531 | 90.34030 | 1455 ft | 162 kts | 145° |
| 2026-05-07 22:14 | 23.90634 | 90.34743 | 1266 ft | 160 kts | 145° |
| 2026-05-07 22:14 | 23.89747 | 90.35448 | 1039 ft | 153 kts | 144° |
| 2026-05-07 22:15 | 23.88894 | 90.36177 | 911 ft | 153 kts | 144° |
| 2026-05-07 22:15 | 23.88002 | 90.36875 | 662 ft | 158 kts | 146° |
| 2026-05-07 22:15 | 23.87081 | 90.37582 | 429 ft | 162 kts | 145° |
| 2026-05-07 22:15 | 23.86175 | 90.38310 | 241 ft | 167 kts | 144° |
| 2026-05-07 22:16 | 23.85289 | 90.39024 | 62 ft | 163 kts | 144° |
| 2026-05-07 22:16 | 23.84479 | 90.39672 | 41 ft | 119 kts | 143° |
| 2026-05-07 22:16 | 23.84003 | 90.40041 | 42 ft | 53 kts | 144° |
| 2026-05-07 22:16 | 23.83833 | 90.40188 | 43 ft | 27 kts | 131° |
| 2026-05-07 22:17 | 23.83735 | 90.40353 | 44 ft | 25 kts | 114° |
| 2026-05-07 22:17 | 23.83700 | 90.40464 | 42 ft | 10 kts | 94° |
| 2026-05-07 22:17 | 23.83696 | 90.40547 | 42 ft | 11 kts | 85° |
| 2026-05-07 22:17 | 23.83719 | 90.40640 | 41 ft | 14 kts | 55° |
| 2026-05-07 22:18 | 23.83776 | 90.40727 | 41 ft | 15 kts | 54° |
| 2026-05-07 22:18 | 23.83876 | 90.40804 | 39 ft | 10 kts | 334° |
| 2026-05-07 22:18 | 23.83948 | 90.40751 | 41 ft | 14 kts | 324° |
| 2026-05-07 22:19 | 23.84039 | 90.40680 | 41 ft | 18 kts | 323° |
| 2026-05-07 22:19 | 23.84146 | 90.40594 | 41 ft | 19 kts | 324° |
| 2026-05-07 22:19 | 23.84248 | 90.40512 | 39 ft | 18 kts | 323° |
| 2026-05-07 22:19 | 23.84360 | 90.40423 | 39 ft | 21 kts | 324° |
| 2026-05-07 22:20 | 23.84489 | 90.40321 | 40 ft | 24 kts | 324° |
| 2026-05-07 22:20 | 23.84633 | 90.40208 | 39 ft | 27 kts | 324° |
| 2026-05-07 22:20 | 23.84786 | 90.40085 | 39 ft | 27 kts | 322° |
| 2026-05-07 22:20 | 23.84939 | 90.39960 | 42 ft | 27 kts | 324° |
| 2026-05-07 22:21 | 23.85081 | 90.39850 | 40 ft | 24 kts | 325° |
| 2026-05-07 22:21 | 23.85226 | 90.39739 | 41 ft | 27 kts | 323° |
| 2026-05-07 22:21 | 23.85351 | 90.39637 | 40 ft | 16 kts | 323° |
| 2026-05-07 22:21 | 23.85436 | 90.39585 | 39 ft | 12 kts | 23° |
| 2026-05-07 22:22 | 23.85499 | 90.39653 | 40 ft | 14 kts | 52° |
| 2026-05-07 22:22 | 23.85552 | 90.39710 | 42 ft | 11 kts | 350° |
| 2026-05-07 22:22 | 23.85618 | 90.39656 | 39 ft | 13 kts | 262° |
| 2026-05-07 22:22 | 23.85587 | 90.39600 | 41 ft | 4 kts | 234° |
| 2026-05-07 22:23 | 23.85580 | 90.39590 | 46 ft | 0 kts | 235° |